createdAt,value
2022-12-03T00:00:25.314Z,59.41
2022-12-03T00:01:30.077Z,58.86
2022-12-03T00:02:32.835Z,58.99
2022-12-03T00:03:37.155Z,58.99
2022-12-03T00:04:39.540Z,59.10
2022-12-03T00:05:48.835Z,59.06
2022-12-03T00:06:51.464Z,59.47
2022-12-03T00:07:54.702Z,59.25
2022-12-03T00:08:56.945Z,59.18
2022-12-03T00:10:00.070Z,59.63
2022-12-03T00:11:02.245Z,59.10
2022-12-03T00:12:05.585Z,59.22
2022-12-03T00:13:07.747Z,59.28
2022-12-03T00:14:10.908Z,59.23
2022-12-03T00:15:13.094Z,58.68
2022-12-03T00:16:16.321Z,59.21
2022-12-03T00:17:19.895Z,58.90
2022-12-03T00:18:23.051Z,59.33
2022-12-03T00:19:25.475Z,58.69
2022-12-03T00:20:28.805Z,59.02
2022-12-03T00:21:30.966Z,59.18
2022-12-03T00:22:34.118Z,58.92
2022-12-03T00:23:41.756Z,59.43
2022-12-03T00:24:45.656Z,59.26
2022-12-03T00:25:47.844Z,59.25
2022-12-03T00:26:51.042Z,59.12
2022-12-03T00:27:53.517Z,59.10
2022-12-03T00:28:57.789Z,59.37
2022-12-03T00:30:00.091Z,59.09
2022-12-03T00:31:03.454Z,58.78
2022-12-03T00:32:06.444Z,58.86
2022-12-03T00:33:11.457Z,58.85
2022-12-03T00:34:13.640Z,58.38
2022-12-03T00:35:17.133Z,58.94
2022-12-03T00:36:19.805Z,58.70
2022-12-03T00:37:22.987Z,58.90
2022-12-03T00:38:25.201Z,59.09
2022-12-03T00:39:28.480Z,58.93
2022-12-03T00:40:30.894Z,58.82
2022-12-03T00:41:34.036Z,58.30
2022-12-03T00:42:36.171Z,58.46
2022-12-03T00:43:39.404Z,59.72
2022-12-03T00:44:41.665Z,59.50
2022-12-03T00:45:44.836Z,59.14
2022-12-03T00:46:47.048Z,58.72
2022-12-03T00:47:50.234Z,59.25
2022-12-03T00:48:54.135Z,58.79
2022-12-03T00:49:57.466Z,58.84
2022-12-03T00:50:59.615Z,58.80
2022-12-03T00:52:02.915Z,59.03
2022-12-03T00:53:04.974Z,58.69
2022-12-03T00:54:08.162Z,58.31
2022-12-03T00:55:10.468Z,58.39
2022-12-03T00:56:13.794Z,58.09
2022-12-03T00:57:15.926Z,58.39
2022-12-03T00:58:19.287Z,58.70
2022-12-03T00:59:21.589Z,58.83
2022-12-03T01:00:25.479Z,59.13
2022-12-03T01:01:28.098Z,59.42
2022-12-03T01:02:31.496Z,59.20
2022-12-03T01:03:33.876Z,59.28
2022-12-03T01:04:38.847Z,59.14
2022-12-03T01:05:41.208Z,58.47
2022-12-03T01:06:44.541Z,58.58
2022-12-03T01:07:47.464Z,58.68
2022-12-03T01:08:50.719Z,58.88
2022-12-03T01:09:52.951Z,59.57
2022-12-03T01:10:56.285Z,59.40
2022-12-03T01:11:58.484Z,59.41
2022-12-03T01:13:01.739Z,59.05
2022-12-03T01:14:03.909Z,58.74
2022-12-03T01:15:08.453Z,59.27
2022-12-03T01:16:10.850Z,59.31
2022-12-03T01:17:14.226Z,60.00
2022-12-03T01:18:16.425Z,59.82
2022-12-03T01:19:19.688Z,59.83
2022-12-03T01:20:23.360Z,59.69
2022-12-03T01:21:26.529Z,59.68
2022-12-03T01:22:28.887Z,59.53
2022-12-03T01:23:31.988Z,59.24
2022-12-03T01:24:34.440Z,59.43
2022-12-03T01:25:37.707Z,60.26
2022-12-03T01:26:40.182Z,60.23
2022-12-03T01:27:43.884Z,59.99
2022-12-03T01:28:46.097Z,59.88
2022-12-03T01:29:49.345Z,59.67
2022-12-03T01:31:10.345Z,60.14
2022-12-03T01:32:19.597Z,59.55
2022-12-03T01:33:22.959Z,59.70
2022-12-03T01:34:25.053Z,59.50
2022-12-03T01:35:29.661Z,59.50
2022-12-03T01:36:34.273Z,59.27
2022-12-03T01:37:37.748Z,59.46
2022-12-03T01:38:39.908Z,59.47
2022-12-03T01:39:43.687Z,59.37
2022-12-03T01:40:45.904Z,59.43
2022-12-03T01:41:50.309Z,59.35
2022-12-03T01:42:52.680Z,58.71
2022-12-03T01:43:58.135Z,58.55
2022-12-03T01:45:02.875Z,58.82
2022-12-03T01:46:05.194Z,58.70
2022-12-03T01:47:14.810Z,58.83
2022-12-03T01:48:17.514Z,59.28
2022-12-03T01:49:22.907Z,58.53
2022-12-03T01:50:32.026Z,58.38
2022-12-03T01:51:35.165Z,58.48
2022-12-03T01:52:39.236Z,59.00
2022-12-03T01:53:42.933Z,58.60
2022-12-03T01:54:48.221Z,58.49
2022-12-03T01:55:51.449Z,59.49
2022-12-03T01:56:54.620Z,59.12
2022-12-03T01:58:00.428Z,59.17
2022-12-03T01:59:02.827Z,59.06
2022-12-03T02:00:08.077Z,59.25
2022-12-03T02:01:14.248Z,58.55
2022-12-03T02:02:23.115Z,58.90
2022-12-03T02:03:26.473Z,59.08
2022-12-03T02:04:31.016Z,58.53
2022-12-03T02:05:34.745Z,59.03
2022-12-03T02:06:38.001Z,59.44
2022-12-03T02:07:40.133Z,58.61
2022-12-03T02:08:43.657Z,59.28
2022-12-03T02:09:45.774Z,58.99
2022-12-03T02:10:48.895Z,58.75
2022-12-03T02:11:51.282Z,58.66
2022-12-03T02:12:58.884Z,59.17
2022-12-03T02:14:06.425Z,58.73
2022-12-03T02:15:11.404Z,58.51
2022-12-03T02:16:13.728Z,58.44
2022-12-03T02:17:17.783Z,57.86
2022-12-03T02:18:20.082Z,57.80
2022-12-03T02:19:26.583Z,57.54
2022-12-03T02:20:30.819Z,57.67
2022-12-03T02:21:42.995Z,57.71
2022-12-03T02:22:54.360Z,58.10
2022-12-03T02:24:04.400Z,58.33
2022-12-03T02:25:13.651Z,57.87
2022-12-03T02:26:17.045Z,57.21
2022-12-03T02:27:19.475Z,57.60
2022-12-03T02:28:22.759Z,58.37
2022-12-03T02:29:25.199Z,58.30
2022-12-03T02:30:30.355Z,58.40
2022-12-03T02:31:33.181Z,58.03
2022-12-03T02:32:36.587Z,58.51
2022-12-03T02:33:38.770Z,58.89
2022-12-03T02:34:44.295Z,58.58
2022-12-03T02:35:46.524Z,58.93
2022-12-03T02:36:49.659Z,58.63
2022-12-03T02:37:55.045Z,58.97
2022-12-03T02:38:58.307Z,58.74
2022-12-03T02:40:05.063Z,58.83
2022-12-03T02:41:34.325Z,58.53
2022-12-03T02:42:37.230Z,59.26
2022-12-03T02:43:39.413Z,59.46
2022-12-03T02:44:42.665Z,59.46
2022-12-03T02:45:48.818Z,58.51
2022-12-03T02:46:51.070Z,58.65
2022-12-03T02:47:58.589Z,58.99
2022-12-03T02:49:02.227Z,59.91
2022-12-03T02:50:06.474Z,59.12
2022-12-03T02:51:10.390Z,59.31
2022-12-03T02:52:13.985Z,59.22
2022-12-03T02:53:20.732Z,58.83
2022-12-03T02:54:24.347Z,58.35
2022-12-03T02:55:30.707Z,58.41
2022-12-03T02:56:39.592Z,58.52
2022-12-03T02:57:43.826Z,58.48
2022-12-03T02:58:50.039Z,58.14
2022-12-03T02:59:52.401Z,58.51
2022-12-03T03:00:56.371Z,58.71
2022-12-03T03:01:58.675Z,58.29
2022-12-03T03:03:02.689Z,59.30
2022-12-03T03:04:06.025Z,58.93
2022-12-03T03:05:12.174Z,58.90
2022-12-03T03:06:15.848Z,58.41
2022-12-03T03:07:19.464Z,58.81
2022-12-03T03:08:21.832Z,58.54
2022-12-03T03:09:25.130Z,59.23
2022-12-03T03:10:28.684Z,58.85
2022-12-03T03:11:32.036Z,59.13
2022-12-03T03:12:39.189Z,59.10
2022-12-03T03:13:43.329Z,59.13
2022-12-03T03:14:46.752Z,59.81
2022-12-03T03:15:50.376Z,60.08
2022-12-03T03:16:56.328Z,59.08
2022-12-03T03:17:59.616Z,59.52
2022-12-03T03:19:02.481Z,59.52
2022-12-03T03:20:09.150Z,60.08
2022-12-03T03:21:12.703Z,59.65
2022-12-03T03:22:16.107Z,59.22
2022-12-03T03:23:20.457Z,59.71
2022-12-03T03:24:24.549Z,59.55
2022-12-03T03:25:26.695Z,59.43
2022-12-03T03:26:29.995Z,59.46
2022-12-03T03:27:32.928Z,59.79
2022-12-03T03:28:40.591Z,59.39
2022-12-03T03:29:43.130Z,59.48
2022-12-03T03:30:47.904Z,59.63
2022-12-03T03:31:50.268Z,59.33
2022-12-03T03:32:53.670Z,58.33
2022-12-03T03:33:55.931Z,58.27
2022-12-03T03:34:59.349Z,58.23
2022-12-03T03:36:02.242Z,57.65
2022-12-03T03:37:05.349Z,57.91
2022-12-03T03:38:09.556Z,58.28
2022-12-03T03:39:13.218Z,58.17
2022-12-03T03:40:15.379Z,58.88
2022-12-03T03:41:19.584Z,59.15
2022-12-03T03:42:21.910Z,59.22
2022-12-03T03:43:26.199Z,59.24
2022-12-03T03:44:32.799Z,58.87
2022-12-03T03:45:35.018Z,59.50
2022-12-03T03:46:38.865Z,59.82
2022-12-03T03:47:41.795Z,59.65
2022-12-03T03:48:45.179Z,59.79
2022-12-03T03:49:48.000Z,60.36
2022-12-03T03:50:52.172Z,60.42
2022-12-03T03:51:56.335Z,59.75
2022-12-03T03:53:00.436Z,59.34
2022-12-03T03:54:05.329Z,59.29
2022-12-03T03:55:09.566Z,58.66
2022-12-03T03:56:13.328Z,59.20
2022-12-03T03:57:15.629Z,58.99
2022-12-03T03:58:19.177Z,58.48
2022-12-03T03:59:21.414Z,58.80
2022-12-03T04:00:26.567Z,59.05
2022-12-03T04:01:30.051Z,58.89
2022-12-03T04:02:33.800Z,58.78
2022-12-03T04:03:36.037Z,59.26
2022-12-03T04:04:39.472Z,58.45
2022-12-03T04:05:42.239Z,58.63
2022-12-03T04:06:45.500Z,59.40
2022-12-03T04:07:47.725Z,59.19
2022-12-03T04:08:51.096Z,59.54
2022-12-03T04:09:53.298Z,59.37
2022-12-03T04:11:13.682Z,59.85
2022-12-03T04:12:34.660Z,60.33
2022-12-03T04:13:38.162Z,61.13
2022-12-03T04:14:40.400Z,60.74
2022-12-03T04:15:45.609Z,61.57
2022-12-03T04:16:47.862Z,61.07
2022-12-03T04:18:11.891Z,61.68
2022-12-03T04:19:14.146Z,61.87
2022-12-03T04:20:17.502Z,61.60
2022-12-03T04:21:40.822Z,60.80
2022-12-03T04:22:43.093Z,61.04
2022-12-03T04:23:45.267Z,60.59
2022-12-03T04:24:48.520Z,61.21
2022-12-03T04:26:14.283Z,61.07
2022-12-03T04:27:35.190Z,61.08
2022-12-03T04:28:49.419Z,60.95
2022-12-03T04:29:52.713Z,60.87
2022-12-03T04:30:56.302Z,61.19
2022-12-03T04:32:16.879Z,61.02
2022-12-03T04:33:37.433Z,61.11
2022-12-03T04:34:58.175Z,60.83
2022-12-03T04:36:01.445Z,61.08
2022-12-03T04:37:04.476Z,61.33
2022-12-03T04:38:07.624Z,60.76
2022-12-03T04:39:09.925Z,60.73
2022-12-03T04:40:45.768Z,61.17
2022-12-03T04:41:49.263Z,61.10
2022-12-03T04:42:51.411Z,61.01
2022-12-03T04:44:12.311Z,60.70
2022-12-03T04:45:15.592Z,61.16
2022-12-03T04:46:19.271Z,62.08
2022-12-03T04:47:23.336Z,61.61
2022-12-03T04:48:25.490Z,62.09
2022-12-03T04:49:28.683Z,61.69
2022-12-03T04:50:30.774Z,60.96
2022-12-03T04:51:33.995Z,62.00
2022-12-03T04:52:36.181Z,61.19
2022-12-03T04:53:45.841Z,61.76
2022-12-03T04:54:49.328Z,61.39
2022-12-03T04:55:51.480Z,61.57
2022-12-03T04:56:54.787Z,61.96
2022-12-03T04:57:57.117Z,62.30
2022-12-03T04:59:00.264Z,61.91
2022-12-03T05:00:02.771Z,61.61
2022-12-03T05:01:06.240Z,61.78
2022-12-03T05:02:10.202Z,62.07
2022-12-03T05:03:13.655Z,61.82
2022-12-03T05:04:16.055Z,61.39
2022-12-03T05:05:19.892Z,61.29
2022-12-03T05:06:22.102Z,60.70
2022-12-03T05:07:25.288Z,61.28
2022-12-03T05:08:27.690Z,60.67
2022-12-03T05:09:30.860Z,60.45
2022-12-03T05:10:32.962Z,60.12
2022-12-03T05:11:36.436Z,60.05
2022-12-03T05:12:39.867Z,59.84
2022-12-03T05:13:43.212Z,59.39
2022-12-03T05:14:46.533Z,59.17
2022-12-03T05:15:48.672Z,59.09
2022-12-03T05:16:51.962Z,59.60
2022-12-03T05:17:55.505Z,59.37
2022-12-03T05:18:58.743Z,59.44
2022-12-03T05:20:19.319Z,59.26
2022-12-03T05:21:22.647Z,59.01
2022-12-03T05:22:24.853Z,59.98
2022-12-03T05:23:28.248Z,59.78
2022-12-03T05:24:31.884Z,59.15
2022-12-03T05:25:34.287Z,60.03
2022-12-03T05:26:38.061Z,60.01
2022-12-03T05:27:40.141Z,59.78
2022-12-03T05:28:43.356Z,60.05
2022-12-03T05:29:45.738Z,60.01
2022-12-03T05:30:48.989Z,60.46
2022-12-03T05:31:51.156Z,61.01
2022-12-03T05:32:54.392Z,60.34
2022-12-03T05:33:57.884Z,60.29
2022-12-03T05:35:01.036Z,60.89
2022-12-03T05:36:04.324Z,60.98
2022-12-03T05:37:06.732Z,60.88
2022-12-03T05:38:09.967Z,61.10
2022-12-03T05:39:12.108Z,60.72
2022-12-03T05:40:15.785Z,60.17
2022-12-03T05:41:36.132Z,60.47
2022-12-03T05:42:57.263Z,61.29
2022-12-03T05:44:00.676Z,61.35
2022-12-03T05:45:02.866Z,61.39
2022-12-03T05:46:06.289Z,61.23
2022-12-03T05:47:08.507Z,60.99
2022-12-03T05:48:13.791Z,61.58
2022-12-03T05:49:17.312Z,61.87
2022-12-03T05:50:20.755Z,61.69
2022-12-03T05:51:22.906Z,62.30
2022-12-03T05:52:26.126Z,61.52
2022-12-03T05:53:29.315Z,61.32
2022-12-03T05:54:31.440Z,61.29
2022-12-03T05:55:34.516Z,61.37
2022-12-03T05:56:36.657Z,61.11
2022-12-03T05:57:40.138Z,61.74
2022-12-03T05:58:43.370Z,61.50
2022-12-03T05:59:45.681Z,61.15
2022-12-03T06:00:48.812Z,60.08
2022-12-03T06:01:51.012Z,60.52
2022-12-03T06:02:54.921Z,60.48
2022-12-03T06:03:57.341Z,60.34
2022-12-03T06:05:01.923Z,60.80
2022-12-03T06:06:04.500Z,60.61
2022-12-03T06:07:12.525Z,59.77
2022-12-03T06:08:17.233Z,60.32
2022-12-03T06:09:19.424Z,60.57
2022-12-03T06:10:24.629Z,60.25
2022-12-03T06:11:26.879Z,60.95
2022-12-03T06:12:30.000Z,60.32
2022-12-03T06:13:32.486Z,60.19
2022-12-03T06:14:36.055Z,60.34
2022-12-03T06:15:43.499Z,60.09
2022-12-03T06:16:47.416Z,60.56
2022-12-03T06:17:50.597Z,60.52
2022-12-03T06:18:52.821Z,60.32
2022-12-03T06:19:56.139Z,60.76
2022-12-03T06:20:59.631Z,60.50
2022-12-03T06:22:02.943Z,60.57
2022-12-03T06:23:06.210Z,60.59
2022-12-03T06:24:08.605Z,60.53
2022-12-03T06:25:12.514Z,60.93
2022-12-03T06:26:15.082Z,61.66
2022-12-03T06:27:18.675Z,60.97
2022-12-03T06:28:20.872Z,61.00
2022-12-03T06:29:24.084Z,61.33
2022-12-03T06:30:26.264Z,60.57
2022-12-03T06:31:29.497Z,60.82
2022-12-03T06:32:31.924Z,60.71
2022-12-03T06:33:35.107Z,60.47
2022-12-03T06:34:37.306Z,60.54
2022-12-03T06:35:40.709Z,61.09
2022-12-03T06:36:44.260Z,60.95
2022-12-03T06:37:47.517Z,61.11
2022-12-03T06:38:49.644Z,60.76
2022-12-03T06:39:52.756Z,60.70
2022-12-03T06:40:54.900Z,61.15
2022-12-03T06:41:58.125Z,61.36
2022-12-03T06:43:00.224Z,60.87
2022-12-03T06:44:03.660Z,60.81
2022-12-03T06:45:06.841Z,61.75
2022-12-03T06:46:09.999Z,61.02
2022-12-03T06:47:12.235Z,60.73
2022-12-03T06:48:15.791Z,60.64
2022-12-03T06:49:18.068Z,60.78
2022-12-03T06:50:21.249Z,61.17
2022-12-03T06:51:23.566Z,61.15
2022-12-03T06:52:28.107Z,61.01
2022-12-03T06:53:30.271Z,61.02
2022-12-03T06:54:33.916Z,60.68
2022-12-03T06:55:36.368Z,60.83
2022-12-03T06:56:45.118Z,60.56
2022-12-03T06:57:48.749Z,60.46
2022-12-03T06:58:50.847Z,60.08
2022-12-03T06:59:54.281Z,59.60
2022-12-03T07:00:56.612Z,59.64
2022-12-03T07:02:00.226Z,59.60
2022-12-03T07:03:02.915Z,59.77
2022-12-03T07:04:06.376Z,59.40
2022-12-03T07:05:10.021Z,59.68
2022-12-03T07:06:12.267Z,59.96
2022-12-03T07:07:15.600Z,60.40
2022-12-03T07:08:19.178Z,60.70
2022-12-03T07:09:22.393Z,60.80
2022-12-03T07:10:24.482Z,60.75
2022-12-03T07:11:39.751Z,60.29
2022-12-03T07:12:41.910Z,60.98
2022-12-03T07:13:45.337Z,61.24
2022-12-03T07:14:47.703Z,60.84
2022-12-03T07:15:50.901Z,61.33
2022-12-03T07:16:53.068Z,60.56
2022-12-03T07:17:56.293Z,60.75
2022-12-03T07:18:59.039Z,60.19
2022-12-03T07:20:02.414Z,60.24
2022-12-03T07:21:04.644Z,60.23
2022-12-03T07:22:07.894Z,60.78
2022-12-03T07:23:10.047Z,60.64
2022-12-03T07:24:14.833Z,60.37
2022-12-03T07:25:22.858Z,60.67
2022-12-03T07:26:26.467Z,60.08
2022-12-03T07:27:28.730Z,60.64
2022-12-03T07:28:31.936Z,60.24
2022-12-03T07:29:34.256Z,60.65
2022-12-03T07:30:37.543Z,60.42
2022-12-03T07:31:39.674Z,60.88
2022-12-03T07:32:42.956Z,60.90
2022-12-03T07:33:45.130Z,60.69
2022-12-03T07:34:48.430Z,61.24
2022-12-03T07:35:50.564Z,60.80
2022-12-03T07:36:53.712Z,60.50
2022-12-03T07:37:55.815Z,60.04
2022-12-03T07:38:58.956Z,60.19
2022-12-03T07:40:02.774Z,59.88
2022-12-03T07:41:06.098Z,59.36
2022-12-03T07:42:09.526Z,59.27
2022-12-03T07:43:13.067Z,59.36
2022-12-03T07:44:16.456Z,59.25
2022-12-03T07:45:18.743Z,59.23
2022-12-03T07:46:22.308Z,60.13
2022-12-03T07:47:24.464Z,59.30
2022-12-03T07:48:27.942Z,59.26
2022-12-03T07:49:31.067Z,60.39
2022-12-03T07:50:33.184Z,58.94
2022-12-03T07:51:36.453Z,58.48
2022-12-03T07:52:38.712Z,59.10
2022-12-03T07:53:42.143Z,58.79
2022-12-03T07:54:44.691Z,58.28
2022-12-03T07:55:49.633Z,58.60
2022-12-03T07:56:56.567Z,58.86
2022-12-03T07:58:02.829Z,58.40
2022-12-03T07:59:05.945Z,59.01
2022-12-03T08:00:08.920Z,58.70
2022-12-03T08:01:12.186Z,58.82
2022-12-03T08:02:20.823Z,58.99
2022-12-03T08:03:24.917Z,58.58
2022-12-03T08:04:27.316Z,58.44
2022-12-03T08:05:30.728Z,58.18
2022-12-03T08:06:33.872Z,58.35
2022-12-03T08:07:36.081Z,57.99
2022-12-03T08:08:39.364Z,57.75
2022-12-03T08:09:42.089Z,57.44
2022-12-03T08:10:45.456Z,57.21
2022-12-03T08:11:50.790Z,57.57
2022-12-03T08:12:53.878Z,57.83
2022-12-03T08:13:58.536Z,58.39
2022-12-03T08:15:01.903Z,58.79
2022-12-03T08:16:16.967Z,58.12
2022-12-03T08:17:21.363Z,57.50
2022-12-03T08:18:24.693Z,57.95
2022-12-03T08:19:27.335Z,57.97
2022-12-03T08:20:34.493Z,58.61
2022-12-03T08:21:38.592Z,58.23
2022-12-03T08:22:41.723Z,57.92
2022-12-03T08:23:45.227Z,57.26
2022-12-03T08:24:47.408Z,57.06
2022-12-03T08:25:51.805Z,57.04
2022-12-03T08:26:57.610Z,56.22
2022-12-03T08:28:08.779Z,56.36
2022-12-03T08:29:12.212Z,56.03
2022-12-03T08:30:18.380Z,54.96
2022-12-03T08:31:28.046Z,55.19
2022-12-03T08:32:33.216Z,54.38
2022-12-03T08:33:37.865Z,53.76
2022-12-03T08:34:41.975Z,53.28
2022-12-03T08:35:50.876Z,52.56
2022-12-03T08:36:58.967Z,52.12
2022-12-03T08:38:06.907Z,52.02
2022-12-03T08:39:27.431Z,52.64
2022-12-03T08:40:36.366Z,52.08
2022-12-03T08:41:56.844Z,51.49
2022-12-03T08:43:01.465Z,50.75
2022-12-03T08:44:14.866Z,50.74
2022-12-03T08:45:42.622Z,50.02
2022-12-03T08:46:45.226Z,50.37
2022-12-03T08:47:48.674Z,49.65
2022-12-03T08:48:51.848Z,48.70
2022-12-03T08:49:58.191Z,48.65
2022-12-03T08:51:05.373Z,48.77
2022-12-03T08:52:14.564Z,48.70
2022-12-03T08:53:27.757Z,48.26
2022-12-03T08:54:30.979Z,47.91
2022-12-03T08:55:35.798Z,47.41
2022-12-03T08:56:39.169Z,47.39
2022-12-03T08:57:43.508Z,46.69
2022-12-03T08:58:50.587Z,46.39
2022-12-03T08:59:56.679Z,45.81
2022-12-03T09:01:04.213Z,46.17
2022-12-03T09:02:26.462Z,45.94
2022-12-03T09:03:31.087Z,46.23
2022-12-03T09:04:40.183Z,46.87
2022-12-03T09:05:42.499Z,46.42
2022-12-03T09:06:45.866Z,46.69
2022-12-03T09:07:48.032Z,46.92
2022-12-03T09:08:51.291Z,46.82
2022-12-03T09:09:54.505Z,47.27
2022-12-03T09:10:57.048Z,47.27
2022-12-03T09:12:02.202Z,47.15
2022-12-03T09:13:04.540Z,47.42
2022-12-03T09:14:12.570Z,48.15
2022-12-03T09:15:20.190Z,50.03
2022-12-03T09:16:22.575Z,49.33
2022-12-03T09:17:25.832Z,49.29
2022-12-03T09:18:27.952Z,49.20
2022-12-03T09:19:32.086Z,49.56
2022-12-03T09:20:34.294Z,48.86
2022-12-03T09:21:37.679Z,49.13
2022-12-03T09:22:39.773Z,49.36
2022-12-03T09:23:43.140Z,49.83
2022-12-03T09:24:45.349Z,50.47
2022-12-03T09:25:48.675Z,50.61
2022-12-03T09:26:50.825Z,51.31
2022-12-03T09:27:54.069Z,51.50
2022-12-03T09:28:56.319Z,50.38
2022-12-03T09:30:01.432Z,50.20
2022-12-03T09:31:03.894Z,50.38
2022-12-03T09:32:07.255Z,51.37
2022-12-03T09:33:10.642Z,50.73
2022-12-03T09:34:13.855Z,50.51
2022-12-03T09:35:16.207Z,50.79
2022-12-03T09:36:19.944Z,50.82
2022-12-03T09:37:22.332Z,51.21
2022-12-03T09:38:26.202Z,51.45
2022-12-03T09:39:29.409Z,51.58
2022-12-03T09:40:31.705Z,51.45
2022-12-03T09:41:35.002Z,51.37
2022-12-03T09:42:38.877Z,51.59
2022-12-03T09:45:11.151Z,52.27
2022-12-03T09:46:13.763Z,51.88
2022-12-03T09:47:16.987Z,51.89
2022-12-03T09:48:20.200Z,51.47
2022-12-03T09:49:23.619Z,52.14
2022-12-03T09:50:27.419Z,51.98
2022-12-03T09:51:34.581Z,52.18
2022-12-03T09:52:36.975Z,52.81
2022-12-03T09:53:41.546Z,52.21
2022-12-03T09:54:47.337Z,52.23
2022-12-03T09:55:51.244Z,52.12
2022-12-03T09:56:56.042Z,51.66
2022-12-03T09:57:58.402Z,52.83
2022-12-03T09:59:01.872Z,52.72
2022-12-03T10:00:18.792Z,51.84
2022-12-03T10:01:22.310Z,52.31
2022-12-03T10:02:29.489Z,51.30
2022-12-03T10:03:33.627Z,51.08
2022-12-03T10:04:35.824Z,51.24
2022-12-03T10:05:42.614Z,50.66
2022-12-03T10:06:49.922Z,51.67
2022-12-03T10:07:52.699Z,51.53
2022-12-03T10:08:56.878Z,51.36
2022-12-03T10:10:00.124Z,50.87
2022-12-03T10:11:03.444Z,50.59
2022-12-03T10:12:07.446Z,49.08
2022-12-03T10:13:17.858Z,49.06
2022-12-03T10:14:23.197Z,49.16
2022-12-03T10:15:26.936Z,49.79
2022-12-03T10:16:30.531Z,49.91
2022-12-03T10:17:33.981Z,48.79
2022-12-03T10:18:41.581Z,49.21
2022-12-03T10:19:44.830Z,49.46
2022-12-03T10:20:48.264Z,49.73
2022-12-03T10:21:50.750Z,49.11
2022-12-03T10:22:53.902Z,48.27
2022-12-03T10:24:19.967Z,48.39
2022-12-03T10:25:24.524Z,49.94
2022-12-03T10:26:39.695Z,51.10
2022-12-03T10:27:43.223Z,51.07
2022-12-03T10:28:47.677Z,50.10
2022-12-03T10:29:56.949Z,50.06
2022-12-03T10:31:01.817Z,47.59
2022-12-03T10:32:06.666Z,46.33
2022-12-03T10:33:18.885Z,45.54
2022-12-03T10:34:25.138Z,45.15
2022-12-03T10:35:38.690Z,46.41
2022-12-03T10:36:42.178Z,46.39
2022-12-03T10:38:00.278Z,45.35
2022-12-03T10:39:13.366Z,45.51
2022-12-03T10:40:24.642Z,45.84
2022-12-03T10:41:29.929Z,46.28
2022-12-03T10:42:34.032Z,46.87
2022-12-03T10:43:37.616Z,46.48
2022-12-03T10:44:39.856Z,46.41
2022-12-03T10:45:44.123Z,47.70
2022-12-03T10:47:07.716Z,47.34
2022-12-03T10:48:16.147Z,47.61
2022-12-03T10:49:20.727Z,47.84
2022-12-03T10:50:22.814Z,48.32
2022-12-03T10:51:26.004Z,48.78
2022-12-03T10:52:28.068Z,47.87
2022-12-03T10:53:33.232Z,44.44
2022-12-03T10:54:37.057Z,44.66
2022-12-03T10:55:40.044Z,45.17
2022-12-03T10:56:43.532Z,45.50
2022-12-03T10:57:47.141Z,44.35
2022-12-03T10:58:49.320Z,44.69
2022-12-03T10:59:52.696Z,42.73
2022-12-03T11:00:56.858Z,42.82
2022-12-03T11:02:01.839Z,42.94
2022-12-03T11:03:04.263Z,43.03
2022-12-03T11:04:07.589Z,43.33
2022-12-03T11:05:14.417Z,42.27
2022-12-03T11:06:19.812Z,41.47
2022-12-03T11:07:23.900Z,42.10
2022-12-03T11:08:29.255Z,43.08
2022-12-03T11:09:34.107Z,43.14
2022-12-03T11:10:36.343Z,43.81
2022-12-03T11:11:39.929Z,44.53
2022-12-03T11:12:42.910Z,44.22
2022-12-03T11:13:52.387Z,43.89
2022-12-03T11:15:08.311Z,43.98
2022-12-03T11:16:10.662Z,44.36
2022-12-03T11:17:42.480Z,44.35
2022-12-03T11:19:01.742Z,45.00
2022-12-03T11:20:05.589Z,46.17
2022-12-03T11:21:09.672Z,45.16
2022-12-03T11:22:42.051Z,45.93
2022-12-03T11:24:21.863Z,46.26
2022-12-03T11:25:49.607Z,45.06
2022-12-03T11:27:20.859Z,45.27
2022-12-03T11:28:51.295Z,45.71
2022-12-03T11:30:02.324Z,46.81
2022-12-03T11:31:11.803Z,47.53
2022-12-03T11:33:06.346Z,46.67
2022-12-03T11:34:47.762Z,45.80
2022-12-03T11:36:15.716Z,45.26
2022-12-03T11:37:29.554Z,47.26
2022-12-03T11:38:58.258Z,47.72
2022-12-03T11:40:02.834Z,48.86
2022-12-03T11:41:10.124Z,50.51
2022-12-03T11:42:39.602Z,49.30
2022-12-03T11:44:00.313Z,49.76
2022-12-03T11:45:24.106Z,48.88
2022-12-03T11:46:28.824Z,49.07
2022-12-03T11:47:38.371Z,50.53
2022-12-03T11:48:44.398Z,50.22
2022-12-03T11:49:49.037Z,50.36
2022-12-03T11:50:53.503Z,49.62
2022-12-03T11:51:57.700Z,49.03
2022-12-03T11:53:02.473Z,50.27
2022-12-03T11:54:04.943Z,49.39
2022-12-03T11:55:17.726Z,50.82
2022-12-03T11:56:22.997Z,49.30
2022-12-03T11:57:44.488Z,48.47
2022-12-03T11:58:47.759Z,49.68
2022-12-03T12:00:02.481Z,49.97
2022-12-03T12:01:08.052Z,48.40
2022-12-03T12:02:20.111Z,48.42
2022-12-03T12:03:27.286Z,48.68
2022-12-03T12:04:32.981Z,49.43
2022-12-03T12:05:36.584Z,50.56
2022-12-03T12:06:43.355Z,50.20
2022-12-03T12:07:48.165Z,49.41
2022-12-03T12:08:59.463Z,49.68
2022-12-03T12:10:01.971Z,50.23
2022-12-03T12:11:16.926Z,49.97
2022-12-03T12:12:29.851Z,50.60
2022-12-03T12:13:57.537Z,50.15
2022-12-03T12:15:00.031Z,50.38
2022-12-03T12:16:05.588Z,51.05
2022-12-03T12:17:36.016Z,49.70
2022-12-03T12:18:41.419Z,48.60
2022-12-03T12:19:49.712Z,50.40
2022-12-03T12:20:54.944Z,49.35
2022-12-03T12:22:13.016Z,49.40
2022-12-03T12:23:29.227Z,49.87
2022-12-03T12:24:36.025Z,49.99
2022-12-03T12:25:42.114Z,50.48
2022-12-03T12:26:50.886Z,49.84
2022-12-03T12:27:55.167Z,49.54
2022-12-03T12:28:57.379Z,50.05
2022-12-03T12:30:02.349Z,49.16
2022-12-03T12:31:11.722Z,48.25
2022-12-03T12:32:16.907Z,48.47
2022-12-03T12:33:23.408Z,47.88
2022-12-03T12:34:28.607Z,47.54
2022-12-03T12:35:33.052Z,48.03
2022-12-03T12:36:35.249Z,48.21
2022-12-03T12:37:47.332Z,48.68
2022-12-03T12:38:51.777Z,48.47
2022-12-03T12:39:56.998Z,48.44
2022-12-03T12:41:08.336Z,49.00
2022-12-03T12:42:32.096Z,49.38
2022-12-03T12:43:38.874Z,49.66
2022-12-03T12:44:41.720Z,48.30
2022-12-03T12:45:45.699Z,48.11
2022-12-03T12:46:48.735Z,48.23
2022-12-03T12:48:03.256Z,47.94
2022-12-03T12:49:11.633Z,46.58
2022-12-03T12:50:17.287Z,47.72
2022-12-03T12:51:20.499Z,48.24
2022-12-03T12:52:23.816Z,47.98
2022-12-03T12:53:28.798Z,47.15
2022-12-03T12:54:31.028Z,44.86
2022-12-03T12:55:34.146Z,44.41
2022-12-03T12:56:37.189Z,43.35
2022-12-03T12:57:40.539Z,42.64
2022-12-03T12:58:42.943Z,42.13
2022-12-03T12:59:46.146Z,43.57
2022-12-03T13:00:52.945Z,45.10
2022-12-03T13:01:56.684Z,45.30
2022-12-03T13:03:01.586Z,44.38
2022-12-03T13:04:12.821Z,43.32
2022-12-03T13:05:17.284Z,43.39
2022-12-03T13:06:24.863Z,42.96
2022-12-03T13:07:27.099Z,42.36
2022-12-03T13:08:33.558Z,43.90
2022-12-03T13:09:35.908Z,43.28
2022-12-03T13:10:40.459Z,43.43
2022-12-03T13:11:45.910Z,43.70
2022-12-03T13:12:48.212Z,45.33
2022-12-03T13:13:52.065Z,44.72
2022-12-03T13:14:59.496Z,44.82
2022-12-03T13:16:06.614Z,43.47
2022-12-03T13:17:14.553Z,42.72
2022-12-03T13:18:30.599Z,44.14
2022-12-03T13:19:46.668Z,47.78
2022-12-03T13:20:51.299Z,48.22
2022-12-03T13:21:55.749Z,48.65
2022-12-03T13:22:57.982Z,49.03
2022-12-03T13:24:02.493Z,50.65
2022-12-03T13:25:58.276Z,51.39
2022-12-03T13:26:57.380Z,50.75
2022-12-03T13:27:59.615Z,51.44
2022-12-03T13:29:07.605Z,51.50
2022-12-03T13:30:16.079Z,50.92
2022-12-03T13:31:25.650Z,50.51
2022-12-03T13:32:32.487Z,50.12
2022-12-03T13:33:34.633Z,50.81
2022-12-03T13:34:37.932Z,49.30
2022-12-03T13:35:42.819Z,48.87
2022-12-03T13:36:53.597Z,48.95
2022-12-03T13:38:00.779Z,48.54
2022-12-03T13:39:13.833Z,49.32
2022-12-03T13:40:25.332Z,49.35
2022-12-03T13:41:46.802Z,49.08
2022-12-03T13:42:49.507Z,49.81
2022-12-03T13:43:54.301Z,49.62
2022-12-03T13:44:56.935Z,47.78
2022-12-03T13:46:01.677Z,49.44
2022-12-03T13:47:14.755Z,48.96
2022-12-03T13:48:21.971Z,48.52
2022-12-03T13:49:25.657Z,49.41
2022-12-03T13:50:34.433Z,47.39
2022-12-03T13:51:37.799Z,47.95
2022-12-03T13:52:42.506Z,48.70
2022-12-03T13:53:45.687Z,47.84
2022-12-03T13:54:50.928Z,47.63
2022-12-03T13:55:59.139Z,47.92
2022-12-03T13:57:05.143Z,48.95
2022-12-03T13:58:07.311Z,49.63
2022-12-03T13:59:10.467Z,48.68
2022-12-03T14:00:13.512Z,48.42
2022-12-03T14:01:16.844Z,49.57
2022-12-03T14:02:20.137Z,49.15
2022-12-03T14:03:23.449Z,50.06
2022-12-03T14:04:26.866Z,50.26
2022-12-03T14:05:29.409Z,50.11